Time;durP1;ratioP1;P1;durP2;ratioP2;P2;SDS_P1;SDS_P2;PMS_P1;PMS_P2;Temp;Humidity;BMP_temperature;BMP_pressure;BME280_temperature;BME280_humidity;BME280_pressure;Samples;Min_cycle;Max_cycle;Signal;HPM_P1;HPM_P2
2023/10/12 00:02:09;;;;;;;8.80;5.03;;;18.90;93.20;;;;;;10539906;28;20288;-79
2023/10/12 00:07:42;;;;;;;5.50;4.70;;;18.80;93.20;;;;;;10537023;28;20305;-79
2023/10/12 00:13:06;;;;;;;7.10;4.47;;;18.80;93.40;;;;;;10544252;28;20220;-79
2023/10/12 00:18:28;;;;;;;6.97;4.20;;;18.60;93.80;;;;;;10541926;28;20227;-79
2023/10/12 00:23:52;;;;;;;5.83;4.13;;;18.50;93.70;;;;;;10543777;28;20539;-79
2023/10/12 00:29:15;;;;;;;5.67;4.43;;;18.40;93.70;;;;;;10526789;28;20239;-79
2023/10/12 00:34:39;;;;;;;5.60;4.50;;;18.20;93.90;;;;;;10549647;28;20221;-78
2023/10/12 00:40:22;;;;;;;11.53;5.10;;;18.10;94.10;;;;;;10543271;28;20235;-78
2023/10/12 00:45:45;;;;;;;5.73;4.60;;;18.00;94.20;;;;;;10540516;28;20571;-79
2023/10/12 00:51:11;;;;;;;6.90;4.30;;;18.00;94.70;;;;;;10542107;28;20211;-79
2023/10/12 00:56:36;;;;;;;5.80;4.67;;;17.90;94.70;;;;;;10519728;28;20220;-79
2023/10/12 01:02:00;;;;;;;7.90;6.93;;;17.90;94.60;;;;;;10509181;28;20201;-79
2023/10/12 01:07:25;;;;;;;10.10;5.30;;;17.90;94.60;;;;;;10541756;28;20224;-79
2023/10/12 01:12:47;;;;;;;6.30;4.83;;;17.80;94.70;;;;;;10544047;28;20739;-79
2023/10/12 01:18:12;;;;;;;5.37;4.80;;;17.80;94.80;;;;;;10524024;28;20224;-79
2023/10/12 01:23:41;;;;;;;10.93;5.93;;;17.80;95.00;;;;;;10528346;28;20192;-79
2023/10/12 01:29:03;;;;;;;6.73;5.00;;;17.80;95.20;;;;;;10556702;28;20212;-79
2023/10/12 01:34:25;;;;;;;7.20;5.00;;;17.80;95.50;;;;;;10549902;28;20224;-76
2023/10/12 01:39:56;;;;;;;5.53;5.03;;;17.80;95.20;;;;;;10541825;28;20633;-78
2023/10/12 01:45:31;;;;;;;7.33;5.43;;;17.70;95.20;;;;;;10530902;28;20275;-78
2023/10/12 01:50:55;;;;;;;8.67;6.17;;;17.70;95.20;;;;;;10535189;28;20204;-79
2023/10/12 01:56:19;;;;;;;7.90;5.00;;;17.60;95.20;;;;;;10524884;28;20228;-79
2023/10/12 02:01:42;;;;;;;5.40;5.00;;;17.50;95.20;;;;;;10520988;28;20238;-79
2023/10/12 02:07:09;;;;;;;9.73;5.10;;;17.50;95.40;;;;;;10541749;28;20259;-79
2023/10/12 02:12:33;;;;;;;10.50;5.63;;;17.40;95.50;;;;;;10518172;28;20215;-79
2023/10/12 02:17:58;;;;;;;6.63;5.00;;;17.40;95.70;;;;;;10515523;28;20583;-79
2023/10/12 02:23:21;;;;;;;5.20;4.70;;;17.30;95.70;;;;;;10521334;28;20760;-79
2023/10/12 02:28:46;;;;;;;8.33;5.10;;;17.30;95.80;;;;;;10517751;28;20216;-79
2023/10/12 02:34:14;;;;;;;7.60;5.60;;;17.30;96.20;;;;;;10517114;28;20653;-79
2023/10/12 02:39:39;;;;;;;5.90;5.40;;;17.30;95.90;;;;;;10518021;28;20610;-79
2023/10/12 02:45:10;;;;;;;7.00;6.10;;;17.20;95.90;;;;;;10526706;28;20200;-81
2023/10/12 02:50:43;;;;;;;9.20;5.70;;;17.20;96.00;;;;;;10522336;28;20754;-81
2023/10/12 02:56:05;;;;;;;7.80;5.70;;;17.20;96.10;;;;;;10534857;28;20230;-80
2023/10/12 03:01:29;;;;;;;7.50;5.03;;;17.10;96.10;;;;;;10539996;28;20281;-79
2023/10/12 03:06:55;;;;;;;8.13;5.97;;;17.20;96.20;;;;;;10525488;28;20224;-78
2023/10/12 03:12:20;;;;;;;7.50;5.83;;;17.10;96.10;;;;;;10520994;28;20578;-78
2023/10/12 03:17:45;;;;;;;7.07;5.50;;;17.20;96.20;;;;;;10526365;28;20315;-78
2023/10/12 03:23:14;;;;;;;14.70;5.87;;;17.20;96.10;;;;;;10521890;28;20295;-79
2023/10/12 03:28:44;;;;;;;5.67;4.90;;;17.20;96.20;;;;;;10525533;28;20228;-79
2023/10/12 03:34:16;;;;;;;5.47;4.97;;;17.20;96.20;;;;;;10536138;28;20636;-79
2023/10/12 03:39:58;;;;;;;6.93;5.03;;;17.20;96.30;;;;;;10532548;28;20223;-79
2023/10/12 03:45:33;;;;;;;7.77;5.40;;;17.20;96.30;;;;;;10533325;28;20198;-78
2023/10/12 03:51:11;;;;;;;5.93;4.90;;;17.30;96.30;;;;;;10536872;28;20193;-77
2023/10/12 03:56:38;;;;;;;11.10;5.50;;;17.30;96.50;;;;;;10531925;28;20789;-79
2023/10/12 04:02:02;;;;;;;5.90;5.37;;;17.30;96.20;;;;;;10530559;28;20200;-79
2023/10/12 04:07:39;;;;;;;6.17;4.97;;;17.30;96.20;;;;;;10531736;28;20650;-79
2023/10/12 04:13:07;;;;;;;5.40;4.90;;;17.30;96.20;;;;;;10538692;28;20214;-79
2023/10/12 04:18:32;;;;;;;7.73;5.60;;;17.30;96.20;;;;;;10536450;28;20213;-75
2023/10/12 04:29:30;;;;;;;10.00;5.20;;;17.40;96.10;;;;;;10516730;27;20886;-80
2023/10/12 04:34:52;;;;;;;8.07;4.87;;;17.30;96.30;;;;;;10514338;28;20284;-80
2023/10/12 04:40:36;;;;;;;6.80;5.37;;;17.30;96.60;;;;;;10503255;28;20255;-78
2023/10/12 04:51:50;;;;;;;7.00;5.20;;;17.10;96.50;;;;;;10490172;28;20197;-80
2023/10/12 04:57:14;;;;;;;5.93;5.33;;;17.10;96.40;;;;;;10484970;28;20213;-80
2023/10/12 05:02:54;;;;;;;20.43;8.40;;;17.10;96.40;;;;;;10476428;28;20278;-80
2023/10/12 05:08:16;;;;;;;7.67;5.10;;;17.10;96.40;;;;;;10475598;28;20213;-80
2023/10/12 05:13:43;;;;;;;8.50;5.70;;;17.10;96.30;;;;;;10512934;28;20211;-80
2023/10/12 05:19:07;;;;;;;5.93;5.33;;;17.10;96.40;;;;;;10520433;28;20300;-80
2023/10/12 05:24:29;;;;;;;9.10;5.27;;;17.20;96.40;;;;;;10547915;28;20196;-80
2023/10/12 05:29:59;;;;;;;6.50;5.17;;;17.20;96.40;;;;;;10547440;28;20307;-80
2023/10/12 05:35:49;;;;;;;6.70;6.00;;;17.20;96.40;;;;;;10546086;28;20184;-78
2023/10/12 05:41:08;;;;;;;6.17;5.57;;;17.30;96.50;;;;;;10515907;28;20897;-80
2023/10/12 05:46:34;;;;;;;6.50;5.40;;;17.30;96.50;;;;;;10504757;28;20228;-80
2023/10/12 05:52:03;;;;;;;6.33;5.70;;;17.30;96.60;;;;;;10499814;28;20262;-80
2023/10/12 05:57:29;;;;;;;5.90;5.10;;;17.30;96.50;;;;;;10487478;28;20215;-79
2023/10/12 06:02:52;;;;;;;9.33;6.27;;;17.40;96.60;;;;;;10502442;28;20256;-80
2023/10/12 06:08:18;;;;;;;7.90;5.30;;;17.40;96.60;;;;;;10473382;28;20221;-80
2023/10/12 06:13:44;;;;;;;9.00;6.43;;;17.50;96.60;;;;;;10499766;28;20323;-79
2023/10/12 06:19:07;;;;;;;6.97;5.10;;;17.60;96.70;;;;;;10509037;28;20240;-79
2023/10/12 06:24:34;;;;;;;7.97;5.53;;;17.70;96.70;;;;;;10517455;28;20229;-80
2023/10/12 06:30:02;;;;;;;5.30;4.80;;;17.70;96.80;;;;;;10484111;28;20206;-80
2023/10/12 06:35:25;;;;;;;6.50;5.00;;;17.80;96.90;;;;;;10500625;28;20193;-81
2023/10/12 06:41:00;;;;;;;6.90;5.03;;;18.00;96.80;;;;;;10505622;28;20255;-80
2023/10/12 06:46:25;;;;;;;7.90;5.90;;;18.10;96.40;;;;;;10500587;28;20282;-81
2023/10/12 06:51:53;;;;;;;5.30;4.80;;;18.30;96.00;;;;;;10500185;28;20259;-80
2023/10/12 06:57:36;;;;;;;5.00;4.23;;;18.50;96.30;;;;;;10501206;28;20221;-81
2023/10/12 07:03:00;;;;;;;7.60;5.03;;;18.60;96.00;;;;;;10501424;28;20580;-81
2023/10/12 07:08:25;;;;;;;8.43;5.37;;;18.70;96.00;;;;;;10501433;28;20225;-80
2023/10/12 07:13:49;;;;;;;7.80;5.43;;;18.90;96.10;;;;;;10498586;28;20201;-81
2023/10/12 07:19:12;;;;;;;7.50;5.23;;;19.00;95.10;;;;;;10499490;28;20597;-80
2023/10/12 07:24:34;;;;;;;5.00;4.37;;;19.30;94.60;;;;;;10476465;28;20201;-80
2023/10/12 07:30:09;;;;;;;10.90;4.50;;;19.50;93.70;;;;;;10479848;28;20209;-80
2023/10/12 07:35:35;;;;;;;6.20;4.30;;;19.70;93.40;;;;;;10499204;28;20255;-81
2023/10/12 07:41:00;;;;;;;5.50;4.13;;;19.90;92.60;;;;;;10506860;28;20229;-80
2023/10/12 07:46:25;;;;;;;10.60;4.87;;;20.00;92.80;;;;;;10508172;28;20669;-80
2023/10/12 07:51:59;;;;;;;5.57;4.60;;;20.10;92.60;;;;;;10499648;28;20207;-80
2023/10/12 07:57:23;;;;;;;6.60;4.10;;;20.00;92.40;;;;;;10499294;28;20217;-80
2023/10/12 08:08:37;;;;;;;11.70;6.00;;;20.10;92.40;;;;;;10520824;28;20209;-80
2023/10/12 08:14:10;;;;;;;5.53;4.80;;;20.00;92.90;;;;;;10514858;28;20611;-79
2023/10/12 08:19:42;;;;;;;6.63;5.07;;;20.00;93.00;;;;;;10501255;28;20730;-81
2023/10/12 08:25:05;;;;;;;6.23;5.13;;;20.00;93.10;;;;;;10508623;28;20209;-79
2023/10/12 08:30:48;;;;;;;5.60;4.60;;;19.90;93.00;;;;;;10491258;28;20216;-80
2023/10/12 08:36:24;;;;;;;5.80;5.17;;;19.90;93.20;;;;;;10518261;28;20213;-76
2023/10/12 08:42:09;;;;;;;7.40;4.43;;;19.90;93.10;;;;;;10499767;28;20208;-79
2023/10/12 08:47:44;;;;;;;6.07;4.53;;;19.80;93.20;;;;;;10497927;28;20705;-79
2023/10/12 08:53:09;;;;;;;8.33;4.43;;;19.80;92.90;;;;;;10475408;28;20197;-79
2023/10/12 08:58:42;;;;;;;6.67;4.10;;;19.80;93.20;;;;;;10498399;28;20673;-79
2023/10/12 09:04:12;;;;;;;9.20;5.53;;;19.80;92.90;;;;;;10496860;28;20201;-79
2023/10/12 09:15:30;;;;;;;8.07;4.93;;;19.90;92.70;;;;;;10498466;28;20212;-79
2023/10/12 09:21:07;;;;;;;6.03;5.43;;;19.90;92.80;;;;;;10510228;28;20228;-79
2023/10/12 09:26:34;;;;;;;6.97;4.60;;;20.00;92.50;;;;;;10490962;28;20312;-79
2023/10/12 09:32:19;;;;;;;5.70;4.13;;;20.00;92.40;;;;;;10488554;28;20663;-79
2023/10/12 09:37:45;;;;;;;8.37;4.70;;;20.00;92.60;;;;;;10489277;28;20210;-79
2023/10/12 09:43:13;;;;;;;9.67;6.27;;;20.10;92.30;;;;;;10511496;28;20201;-79
2023/10/12 09:48:39;;;;;;;6.90;5.53;;;20.20;92.30;;;;;;10479806;28;20259;-79
2023/10/12 09:54:15;;;;;;;8.10;5.83;;;20.20;92.20;;;;;;10489117;28;20193;-79
2023/10/12 09:59:51;;;;;;;7.00;4.93;;;20.40;92.20;;;;;;10502474;28;20228;-79
2023/10/12 10:05:27;;;;;;;6.00;5.20;;;20.40;92.10;;;;;;10504142;28;20216;-80
2023/10/12 10:10:57;;;;;;;8.90;5.37;;;20.50;91.70;;;;;;10507458;28;20196;-80
2023/10/12 10:16:21;;;;;;;12.27;6.67;;;20.60;91.80;;;;;;10504477;28;20213;-80
2023/10/12 10:21:50;;;;;;;6.23;5.33;;;20.60;92.20;;;;;;10504461;28;20666;-80
2023/10/12 10:27:14;;;;;;;6.23;4.87;;;20.70;92.30;;;;;;10497398;28;20221;-80
2023/10/12 10:32:39;;;;;;;10.10;5.70;;;20.80;92.30;;;;;;10504295;28;20696;-79
2023/10/12 10:38:01;;;;;;;5.77;5.20;;;20.90;92.60;;;;;;10501883;28;20699;-80
2023/10/12 10:43:24;;;;;;;8.60;5.63;;;20.90;92.50;;;;;;10502155;28;20203;-80
2023/10/12 10:48:49;;;;;;;6.03;5.43;;;20.90;92.50;;;;;;10455162;28;20273;-80
2023/10/12 10:54:18;;;;;;;7.70;5.43;;;20.90;92.50;;;;;;10472182;28;20185;-80
2023/10/12 10:59:42;;;;;;;13.80;6.30;;;21.00;92.90;;;;;;10485788;28;20214;-79
2023/10/12 11:05:10;;;;;;;8.53;5.60;;;20.90;93.00;;;;;;10499499;28;20204;-79
2023/10/12 11:10:34;;;;;;;6.50;5.23;;;20.90;92.80;;;;;;10510291;28;20648;-80
2023/10/12 11:15:56;;;;;;;8.40;6.43;;;21.00;93.40;;;;;;10499986;28;20251;-80
2023/10/12 11:21:20;;;;;;;6.23;5.63;;;21.10;92.90;;;;;;10501566;28;20201;-80
2023/10/12 11:26:54;;;;;;;8.10;5.30;;;21.20;93.10;;;;;;10501023;28;20309;-79
2023/10/12 11:32:20;;;;;;;6.57;5.10;;;21.20;93.60;;;;;;10502234;28;20639;-80
2023/10/12 11:37:44;;;;;;;8.97;5.83;;;21.30;92.90;;;;;;10503320;28;20300;-80
2023/10/12 11:43:06;;;;;;;6.93;5.83;;;21.30;93.00;;;;;;10501454;28;20263;-80
2023/10/12 11:48:29;;;;;;;7.70;5.33;;;21.40;93.20;;;;;;10508297;28;20234;-80
2023/10/12 11:53:53;;;;;;;9.13;5.70;;;21.40;93.00;;;;;;10514356;28;20200;-80
2023/10/12 11:59:22;;;;;;;8.43;5.70;;;21.40;93.80;;;;;;10515942;28;20221;-80
2023/10/12 12:04:44;;;;;;;10.30;5.63;;;21.50;93.90;;;;;;10506039;28;20198;-80
2023/10/12 12:10:13;;;;;;;8.30;5.93;;;21.60;94.10;;;;;;10514839;28;20229;-80
2023/10/12 12:15:35;;;;;;;14.23;5.80;;;21.70;93.70;;;;;;10484784;28;20577;-80
2023/10/12 12:20:58;;;;;;;6.67;5.10;;;21.90;93.10;;;;;;10498983;28;20280;-80
2023/10/12 12:26:23;;;;;;;6.10;5.50;;;22.00;93.10;;;;;;10498955;28;20593;-80
2023/10/12 12:31:45;;;;;;;10.00;5.90;;;21.90;92.80;;;;;;10483484;28;20282;-80
2023/10/12 12:37:08;;;;;;;9.10;5.53;;;21.80;93.30;;;;;;10483907;28;20225;-80
2023/10/12 12:42:32;;;;;;;9.87;5.83;;;21.70;93.80;;;;;;10497191;28;20204;-80
2023/10/12 12:47:55;;;;;;;6.60;5.70;;;21.70;93.90;;;;;;10473818;28;20221;-80
2023/10/12 12:53:18;;;;;;;11.00;6.90;;;21.70;94.50;;;;;;10509622;28;20343;-80
2023/10/12 12:58:46;;;;;;;8.90;7.10;;;21.60;95.10;;;;;;10524508;28;20225;-80
2023/10/12 13:04:09;;;;;;;9.83;6.40;;;21.50;95.80;;;;;;10512444;28;20255;-79
2023/10/12 13:09:33;;;;;;;10.17;5.10;;;21.40;95.20;;;;;;10505587;28;20225;-80
2023/10/12 13:15:00;;;;;;;11.33;6.43;;;21.30;95.80;;;;;;10540439;28;20225;-80
2023/10/12 13:20:28;;;;;;;6.97;5.13;;;21.20;95.90;;;;;;10468425;28;20340;-80
2023/10/12 13:25:51;;;;;;;8.43;5.77;;;21.20;96.10;;;;;;10504068;28;20666;-80
2023/10/12 13:31:14;;;;;;;7.40;6.10;;;21.20;95.40;;;;;;10504109;28;20188;-80
2023/10/12 13:36:39;;;;;;;9.50;6.20;;;21.30;95.30;;;;;;10505088;28;20267;-80
2023/10/12 13:42:01;;;;;;;9.00;5.90;;;21.40;94.50;;;;;;10506393;28;20208;-80
2023/10/12 13:47:25;;;;;;;6.77;5.83;;;21.50;94.00;;;;;;10503145;28;20911;-80
2023/10/12 13:52:47;;;;;;;8.50;5.77;;;21.50;94.20;;;;;;10504105;28;20200;-80
2023/10/12 13:58:10;;;;;;;8.50;6.27;;;21.60;94.60;;;;;;10511921;28;20247;-80
2023/10/12 14:03:35;;;;;;;8.40;5.20;;;21.60;94.10;;;;;;10526424;28;20628;-80
2023/10/12 14:08:58;;;;;;;12.00;6.00;;;21.60;94.90;;;;;;10517996;28;20220;-80
2023/10/12 14:14:20;;;;;;;8.03;5.87;;;21.60;95.00;;;;;;10489516;28;20229;-80
2023/10/12 14:19:44;;;;;;;6.93;6.00;;;21.50;95.50;;;;;;10502319;28;20225;-80
2023/10/12 14:25:07;;;;;;;7.80;5.70;;;21.50;96.10;;;;;;10503166;28;20265;-79
2023/10/12 14:30:29;;;;;;;9.07;6.87;;;21.40;96.40;;;;;;10504593;28;20232;-80
2023/10/12 14:35:54;;;;;;;8.43;6.90;;;21.30;96.80;;;;;;10507215;28;20201;-80
2023/10/12 14:41:17;;;;;;;9.73;7.23;;;21.20;97.20;;;;;;10485340;28;20185;-80
2023/10/12 14:46:41;;;;;;;8.90;6.03;;;21.10;97.40;;;;;;10485696;28;20267;-80
2023/10/12 14:52:06;;;;;;;10.00;5.80;;;21.10;97.40;;;;;;10500973;28;20201;-80
2023/10/12 14:57:29;;;;;;;8.83;6.50;;;21.10;96.60;;;;;;10508208;28;20208;-80
2023/10/12 15:02:51;;;;;;;8.87;6.10;;;21.10;97.10;;;;;;10497488;28;20569;-80
2023/10/12 15:08:17;;;;;;;7.50;6.60;;;21.00;97.30;;;;;;10502095;28;20228;-80
2023/10/12 15:13:41;;;;;;;9.13;6.93;;;20.90;97.50;;;;;;10495743;28;20212;-79
2023/10/12 15:19:08;;;;;;;7.10;6.40;;;20.90;98.30;;;;;;10501308;28;20217;-77
2023/10/12 15:24:37;;;;;;;10.40;7.13;;;20.80;98.30;;;;;;10472512;28;20209;-80
2023/10/12 15:30:00;;;;;;;7.70;6.90;;;20.80;98.30;;;;;;10493548;28;20239;-79
2023/10/12 15:35:24;;;;;;;6.60;5.90;;;20.70;98.10;;;;;;10494485;28;20204;-77
2023/10/12 15:40:49;;;;;;;8.83;6.27;;;20.70;97.50;;;;;;10493119;28;20209;-79
2023/10/12 15:46:11;;;;;;;6.60;5.80;;;20.70;96.40;;;;;;10494477;28;20217;-80
2023/10/12 15:51:33;;;;;;;9.80;6.37;;;20.80;96.10;;;;;;10493978;28;20189;-80
2023/10/12 15:56:57;;;;;;;6.93;5.40;;;20.70;96.00;;;;;;10496437;28;20224;-79
2023/10/12 16:02:19;;;;;;;8.83;5.27;;;20.70;95.80;;;;;;10478758;28;20193;-77
2023/10/12 16:07:41;;;;;;;4.90;4.40;;;20.70;95.10;;;;;;10496720;28;20228;-78
2023/10/12 16:13:08;;;;;;;7.03;4.50;;;20.60;95.10;;;;;;10493079;28;20231;-78
2023/10/12 16:18:30;;;;;;;12.17;4.40;;;20.60;95.70;;;;;;10477898;28;20209;-78
2023/10/12 16:23:53;;;;;;;5.83;5.07;;;20.60;95.00;;;;;;10492030;28;20600;-78
2023/10/12 16:29:16;;;;;;;9.63;5.10;;;20.60;94.90;;;;;;10477269;28;20228;-78
2023/10/12 16:34:38;;;;;;;7.23;4.50;;;20.60;95.00;;;;;;10503886;28;20211;-76
2023/10/12 16:40:01;;;;;;;8.80;5.83;;;20.70;95.00;;;;;;10500112;28;20216;-78
2023/10/12 16:45:26;;;;;;;4.80;4.40;;;20.70;95.10;;;;;;10497034;28;20339;-80
2023/10/12 16:50:55;;;;;;;6.53;5.00;;;20.60;94.80;;;;;;10492098;28;20694;-79
2023/10/12 16:56:17;;;;;;;8.83;4.30;;;20.60;95.00;;;;;;10499360;28;20217;-79
2023/10/12 17:01:41;;;;;;;6.83;4.83;;;20.70;95.00;;;;;;10496241;28;20674;-79
2023/10/12 17:07:11;;;;;;;5.97;4.40;;;20.70;94.80;;;;;;10493665;28;20606;-79
2023/10/12 17:12:35;;;;;;;7.63;5.17;;;20.70;94.60;;;;;;10498380;28;20204;-79
2023/10/12 17:17:58;;;;;;;5.30;4.80;;;20.60;94.60;;;;;;10496449;28;20209;-79
2023/10/12 17:23:27;;;;;;;6.77;5.30;;;20.60;94.80;;;;;;10503903;28;20681;-79
2023/10/12 17:28:49;;;;;;;8.60;5.23;;;20.40;94.60;;;;;;10496471;28;20546;-78
2023/10/12 17:34:15;;;;;;;7.80;4.83;;;20.40;94.50;;;;;;10472358;28;20197;-77
2023/10/12 17:39:38;;;;;;;7.87;4.97;;;20.30;94.30;;;;;;10469667;28;20414;-77
2023/10/12 17:45:01;;;;;;;12.00;5.27;;;20.20;94.20;;;;;;10491553;28;20609;-76
2023/10/12 17:50:25;;;;;;;7.40;4.50;;;20.10;94.00;;;;;;10493443;28;20209;-77
2023/10/12 17:55:48;;;;;;;6.60;5.13;;;20.10;93.50;;;;;;10492603;28;20209;-77
2023/10/12 18:01:10;;;;;;;7.13;5.20;;;20.20;93.40;;;;;;10494201;28;20190;-77
2023/10/12 18:06:34;;;;;;;6.27;4.50;;;20.20;93.20;;;;;;10488661;28;20213;-78
2023/10/12 18:11:57;;;;;;;5.50;4.90;;;20.20;92.70;;;;;;10495934;28;20197;-78
2023/10/12 18:17:44;;;;;;;5.53;4.47;;;20.20;92.80;;;;;;10502016;22;20232;-78
2023/10/12 18:23:54;;;;;;;9.13;7.20;;;20.20;92.60;;;;;;10488390;28;20259;-77
2023/10/12 18:29:28;;;;;;;8.80;5.03;;;20.30;92.40;;;;;;10480388;28;20327;-78
2023/10/12 18:35:26;;;;;;;5.60;5.10;;;20.30;92.40;;;;;;10496229;28;20292;-77
2023/10/12 18:41:36;;;;;;;6.20;4.67;;;20.30;92.40;;;;;;10288898;28;20209;-79
2023/10/12 18:47:27;;;;;;;8.07;4.53;;;20.20;92.40;;;;;;10499289;28;20304;-80
2023/10/12 18:53:00;;;;;;;7.93;5.00;;;20.20;92.20;;;;;;10506866;28;20567;-80
2023/10/12 18:58:34;;;;;;;6.60;4.60;;;20.20;92.20;;;;;;10500170;28;20224;-80
2023/10/12 19:04:12;;;;;;;5.40;4.47;;;20.20;92.50;;;;;;10500932;28;20601;-81
2023/10/12 19:09:45;;;;;;;6.30;3.70;;;20.20;92.10;;;;;;10475253;22;20238;-77
2023/10/12 19:15:10;;;;;;;4.33;3.93;;;20.20;91.90;;;;;;10463467;28;20205;-79
2023/10/12 19:20:33;;;;;;;4.80;3.73;;;20.20;92.00;;;;;;10437606;28;20348;-79
2023/10/12 19:25:57;;;;;;;4.70;4.10;;;20.20;91.50;;;;;;10442297;28;20273;-78
2023/10/12 19:31:20;;;;;;;4.17;3.73;;;20.30;91.50;;;;;;10487025;28;20227;-79
2023/10/12 19:36:42;;;;;;;8.63;4.73;;;20.30;91.20;;;;;;10485509;28;20678;-79
2023/10/12 19:42:05;;;;;;;5.23;4.40;;;20.30;91.40;;;;;;10482456;28;20237;-79
2023/10/12 19:47:31;;;;;;;5.20;4.53;;;20.30;91.00;;;;;;10468936;28;20205;-79
2023/10/12 19:52:54;;;;;;;9.00;4.43;;;20.30;91.10;;;;;;10444624;28;20663;-79
2023/10/12 19:58:18;;;;;;;6.80;4.50;;;20.30;91.10;;;;;;10467578;28;20236;-79
2023/10/12 20:03:45;;;;;;;8.00;4.13;;;20.20;91.40;;;;;;10455589;28;20339;-78
2023/10/12 20:09:12;;;;;;;5.47;3.60;;;20.20;90.80;;;;;;10486413;28;20221;-78
2023/10/12 20:14:34;;;;;;;5.40;3.80;;;20.20;91.20;;;;;;10455336;28;20300;-79
2023/10/12 20:19:58;;;;;;;9.90;6.40;;;20.20;92.00;;;;;;10469725;28;20228;-77
2023/10/12 20:25:20;;;;;;;8.47;5.53;;;20.20;92.20;;;;;;10471930;28;20206;-77
2023/10/12 20:30:43;;;;;;;7.67;5.90;;;20.10;92.50;;;;;;10469971;28;20229;-79
2023/10/12 20:36:08;;;;;;;5.67;5.07;;;20.00;92.30;;;;;;10477013;28;20193;-79
2023/10/12 20:41:31;;;;;;;8.80;6.00;;;20.00;92.60;;;;;;10475258;28;20300;-79
2023/10/12 20:46:53;;;;;;;10.53;5.30;;;19.90;92.20;;;;;;10477489;28;20224;-78
2023/10/12 20:52:18;;;;;;;5.90;5.30;;;19.90;92.60;;;;;;10478026;28;20748;-78
2023/10/12 20:57:43;;;;;;;16.10;6.17;;;19.80;92.40;;;;;;10468186;28;20218;-77
2023/10/12 21:03:10;;;;;;;9.83;4.67;;;19.80;92.70;;;;;;10467284;28;20611;-79
2023/10/12 21:08:37;;;;;;;5.13;4.63;;;19.80;93.00;;;;;;10461691;28;20282;-78
2023/10/12 21:14:04;;;;;;;5.53;4.43;;;19.70;92.90;;;;;;10486788;28;20198;-78
2023/10/12 21:19:26;;;;;;;7.53;5.00;;;19.70;92.80;;;;;;10466835;28;20291;-79
2023/10/12 21:24:55;;;;;;;5.30;4.47;;;19.70;92.80;;;;;;10488283;28;20205;-77
2023/10/12 21:30:17;;;;;;;5.03;4.30;;;19.70;92.80;;;;;;10477603;28;20256;-77
2023/10/12 21:35:45;;;;;;;6.13;4.10;;;19.60;92.60;;;;;;10484905;28;20197;-79
2023/10/12 21:41:10;;;;;;;6.10;3.53;;;19.60;92.40;;;;;;10476614;28;20217;-77
2023/10/12 21:46:33;;;;;;;7.47;4.97;;;19.60;92.90;;;;;;10479485;28;20639;-78
2023/10/12 21:51:55;;;;;;;5.27;3.93;;;19.60;93.60;;;;;;10485082;28;20588;-78
2023/10/12 21:57:19;;;;;;;4.87;4.17;;;19.60;93.10;;;;;;10488331;28;20208;-78
2023/10/12 22:02:41;;;;;;;4.20;3.80;;;19.50;93.20;;;;;;10476175;28;20201;-78
2023/10/12 22:08:04;;;;;;;5.30;4.37;;;19.50;93.40;;;;;;10485172;28;20229;-78
2023/10/12 22:13:48;;;;;;;4.90;3.70;;;19.50;93.50;;;;;;10488910;28;20618;-80
2023/10/12 22:19:11;;;;;;;7.40;4.63;;;19.50;94.10;;;;;;10486342;28;20293;-78
2023/10/12 22:24:34;;;;;;;6.40;4.60;;;19.40;93.70;;;;;;10473339;28;20314;-78
2023/10/12 22:29:57;;;;;;;5.93;4.13;;;19.40;93.70;;;;;;10464336;28;20367;-79
2023/10/12 22:35:20;;;;;;;4.63;4.23;;;19.40;93.80;;;;;;10475077;28;20194;-79
2023/10/12 22:40:42;;;;;;;4.40;4.00;;;19.40;93.80;;;;;;10457654;28;20577;-79
2023/10/12 22:46:06;;;;;;;5.17;4.67;;;19.40;93.90;;;;;;10483618;28;20202;-79
2023/10/12 22:51:29;;;;;;;5.30;4.40;;;19.40;93.80;;;;;;10457250;28;20221;-78
2023/10/12 22:56:52;;;;;;;5.80;4.60;;;19.30;93.80;;;;;;10471225;28;20197;-79
2023/10/12 23:02:16;;;;;;;5.90;4.63;;;19.30;94.00;;;;;;10479703;28;20290;-79
2023/10/12 23:07:39;;;;;;;4.30;3.90;;;19.30;93.90;;;;;;10482363;28;20256;-79
2023/10/12 23:13:04;;;;;;;4.83;4.43;;;19.30;93.80;;;;;;10475956;28;20198;-78
2023/10/12 23:18:28;;;;;;;4.97;4.30;;;19.30;94.20;;;;;;10468590;28;20246;-79
2023/10/12 23:23:50;;;;;;;5.80;3.90;;;19.20;94.00;;;;;;10474379;28;20201;-78
2023/10/12 23:29:13;;;;;;;4.80;4.40;;;19.30;93.80;;;;;;10478208;28;20227;-78
2023/10/12 23:34:44;;;;;;;19.50;5.47;;;19.30;93.90;;;;;;10470551;28;20294;-77
2023/10/12 23:40:13;;;;;;;5.70;4.70;;;19.20;93.40;;;;;;10480311;28;20234;-79
2023/10/12 23:45:35;;;;;;;4.50;4.10;;;19.30;93.20;;;;;;10481150;28;20205;-79
2023/10/12 23:51:04;;;;;;;4.60;3.90;;;19.30;93.00;;;;;;10460865;28;20312;-79
2023/10/12 23:56:39;;;;;;;6.27;4.60;;;19.30;92.90;;;;;;10462505;28;20197;-78
